createdAt,value
2023-01-08T00:01:26.147Z,99491.25
2023-01-08T00:03:54.621Z,99477.50
2023-01-08T00:06:22.915Z,99473.19
2023-01-08T00:08:50.940Z,99480.81
2023-01-08T00:11:19.362Z,99473.09
2023-01-08T00:13:47.341Z,99480.06
2023-01-08T00:16:17.254Z,99479.22
2023-01-08T00:18:47.106Z,99483.56
2023-01-08T00:21:15.223Z,99481.84
2023-01-08T00:23:43.181Z,99475.72
2023-01-08T00:26:12.013Z,99471.34
2023-01-08T00:28:40.357Z,99476.59
2023-01-08T00:31:10.321Z,99469.75
2023-01-08T00:33:39.806Z,99461.09
2023-01-08T00:36:09.853Z,99466.19
2023-01-08T00:38:38.259Z,99460.16
2023-01-08T00:41:06.368Z,99457.63
2023-01-08T00:43:34.492Z,99466.31
2023-01-08T00:46:03.284Z,99473.19
2023-01-08T00:48:31.620Z,99478.34
2023-01-08T00:51:02.292Z,99478.44
2023-01-08T00:53:30.671Z,99480.88
2023-01-08T00:56:07.058Z,99480.13
2023-01-08T00:58:35.624Z,99481.84
2023-01-08T01:01:10.453Z,99469.56
2023-01-08T01:03:38.869Z,99468.75
2023-01-08T01:06:07.855Z,99479.00
2023-01-08T01:08:35.910Z,99478.03
2023-01-08T01:11:13.218Z,99474.75
2023-01-08T01:13:41.341Z,99478.88
2023-01-08T01:16:09.643Z,99473.69
2023-01-08T01:18:37.570Z,99472.06
2023-01-08T01:21:13.751Z,99466.16
2023-01-08T01:23:42.097Z,99475.66
2023-01-08T01:26:21.100Z,99463.53
2023-01-08T01:28:54.972Z,99454.88
2023-01-08T01:31:23.994Z,99464.41
2023-01-08T01:33:52.322Z,99454.88
2023-01-08T01:36:23.841Z,99452.25
2023-01-08T01:38:54.373Z,99457.56
2023-01-08T01:41:25.572Z,99456.59
2023-01-08T01:43:54.533Z,99448.88
2023-01-08T01:46:24.882Z,99445.37
2023-01-08T01:48:56.168Z,99442.69
2023-01-08T01:51:27.774Z,99436.75
2023-01-08T01:53:55.774Z,99434.16
2023-01-08T01:56:23.983Z,99432.31
2023-01-08T01:58:52.276Z,99419.50
2023-01-08T02:01:20.432Z,99419.44
2023-01-08T02:03:48.901Z,99414.09
2023-01-08T02:06:20.163Z,99416.78
2023-01-08T02:09:26.632Z,99408.09
2023-01-08T02:12:19.189Z,99404.69
2023-01-08T02:15:24.321Z,99396.97
2023-01-08T02:17:58.450Z,99402.12
2023-01-08T02:20:34.499Z,99400.47
2023-01-08T02:23:21.755Z,99403.09
2023-01-08T02:25:52.602Z,99397.88
2023-01-08T02:28:22.284Z,99399.63
2023-01-08T02:30:50.351Z,99390.84
2023-01-08T02:33:18.263Z,99385.72
2023-01-08T02:35:53.123Z,99386.47
2023-01-08T02:38:22.049Z,99381.47
2023-01-08T02:41:19.473Z,99381.47
2023-01-08T02:43:50.782Z,99379.75
2023-01-08T02:46:23.969Z,99387.44
2023-01-08T02:48:56.182Z,99382.28
2023-01-08T02:51:44.026Z,99379.78
2023-01-08T02:54:17.591Z,99382.34
2023-01-08T02:56:57.376Z,99376.25
2023-01-08T02:59:26.551Z,99377.97
2023-01-08T03:01:55.917Z,99384.00
2023-01-08T03:04:25.082Z,99378.84
2023-01-08T03:06:53.037Z,99380.56
2023-01-08T03:09:21.493Z,99369.37
2023-01-08T03:11:57.182Z,99377.09
2023-01-08T03:14:29.033Z,99371.06
2023-01-08T03:17:25.151Z,99375.44
2023-01-08T03:20:08.673Z,99366.81
2023-01-08T03:22:39.598Z,99365.16
2023-01-08T03:25:09.119Z,99363.41
2023-01-08T03:27:41.395Z,99368.59
2023-01-08T03:30:10.958Z,99354.66
2023-01-08T03:32:41.621Z,99359.81
2023-01-08T03:35:12.427Z,99357.31
2023-01-08T03:37:45.672Z,99358.22
2023-01-08T03:40:24.332Z,99361.66
2023-01-08T03:42:52.316Z,99359.06
2023-01-08T03:45:22.314Z,99362.44
2023-01-08T03:47:50.798Z,99360.59
2023-01-08T03:50:22.962Z,99348.66
2023-01-08T03:52:51.214Z,99347.75
2023-01-08T03:55:19.343Z,99336.53
2023-01-08T03:57:47.273Z,99343.50
2023-01-08T04:00:16.105Z,99334.84
2023-01-08T04:02:44.503Z,99335.69
2023-01-08T04:05:12.751Z,99339.19
2023-01-08T04:07:40.862Z,99340.91
2023-01-08T04:10:09.161Z,99346.06
2023-01-08T04:12:37.121Z,99348.59
2023-01-08T04:15:05.510Z,99342.53
2023-01-08T04:17:33.929Z,99340.81
2023-01-08T04:20:01.926Z,99340.81
2023-01-08T04:22:29.909Z,99339.97
2023-01-08T04:24:58.201Z,99343.47
2023-01-08T04:27:26.398Z,99335.69
2023-01-08T04:29:54.381Z,99327.91
2023-01-08T04:32:22.789Z,99325.28
2023-01-08T04:34:50.665Z,99327.84
2023-01-08T04:37:18.653Z,99323.56
2023-01-08T04:39:46.954Z,99335.63
2023-01-08T04:42:14.934Z,99330.53
2023-01-08T04:44:42.848Z,99332.22
2023-01-08T04:47:11.245Z,99331.28
2023-01-08T04:49:39.226Z,99334.78
2023-01-08T04:52:07.242Z,99339.13
2023-01-08T04:54:35.569Z,99332.94
2023-01-08T04:57:03.463Z,99341.69
2023-01-08T04:59:31.431Z,99336.53
2023-01-08T05:01:59.961Z,99334.78
2023-01-08T05:04:28.017Z,99329.56
2023-01-08T05:06:56.003Z,99344.28
2023-01-08T05:09:24.310Z,99338.22
2023-01-08T05:11:52.206Z,99332.78
2023-01-08T05:14:20.175Z,99326.97
2023-01-08T05:16:48.467Z,99318.28
2023-01-08T05:19:16.809Z,99328.84
2023-01-08T05:21:44.823Z,99325.22
2023-01-08T05:24:13.132Z,99322.66
2023-01-08T05:26:41.203Z,99321.84
2023-01-08T05:29:10.613Z,99315.78
2023-01-08T05:31:38.997Z,99321.91
2023-01-08T05:34:07.109Z,99325.31
2023-01-08T05:36:35.140Z,99315.81
2023-01-08T05:39:04.161Z,99317.47
2023-01-08T05:41:32.121Z,99320.03
2023-01-08T05:44:01.018Z,99315.78
2023-01-08T05:46:29.442Z,99314.13
2023-01-08T05:48:58.046Z,99310.56
2023-01-08T05:51:25.987Z,99313.16
2023-01-08T05:53:54.386Z,99307.19
2023-01-08T05:56:22.392Z,99308.94
2023-01-08T05:58:50.406Z,99304.56
2023-01-08T06:01:18.836Z,99294.25
2023-01-08T06:03:47.507Z,99292.53
2023-01-08T06:06:16.906Z,99295.09
2023-01-08T06:08:44.905Z,99289.09
2023-01-08T06:11:13.799Z,99289.00
2023-01-08T06:13:43.542Z,99286.47
2023-01-08T06:16:12.324Z,99283.87
2023-01-08T06:18:40.631Z,99277.87
2023-01-08T06:21:09.533Z,99281.28
2023-01-08T06:23:37.355Z,99283.03
2023-01-08T06:26:05.806Z,99287.31
2023-01-08T06:28:33.917Z,99280.41
2023-01-08T06:31:02.268Z,99289.84
2023-01-08T06:33:31.104Z,99286.50
2023-01-08T06:36:04.699Z,99283.81
2023-01-08T06:38:34.285Z,99282.16
2023-01-08T06:41:06.902Z,99271.75
2023-01-08T06:43:36.067Z,99277.69
2023-01-08T06:46:05.946Z,99276.94
2023-01-08T06:48:33.987Z,99281.28
2023-01-08T06:51:03.164Z,99285.66
2023-01-08T06:53:31.118Z,99286.50
2023-01-08T06:55:59.506Z,99285.63
2023-01-08T06:58:28.665Z,99283.00
2023-01-08T07:00:59.118Z,99282.19
2023-01-08T07:03:27.556Z,99281.31
2023-01-08T07:05:56.195Z,99288.19
2023-01-08T07:08:24.613Z,99285.59
2023-01-08T07:10:52.881Z,99284.59
2023-01-08T07:13:22.912Z,99279.53
2023-01-08T07:15:50.980Z,99288.22
2023-01-08T07:18:19.571Z,99285.66
2023-01-08T07:20:48.982Z,99279.59
2023-01-08T07:23:17.083Z,99283.87
2023-01-08T07:25:45.471Z,99284.69
2023-01-08T07:28:13.977Z,99281.25
2023-01-08T07:30:41.993Z,99270.00
2023-01-08T07:33:10.333Z,99270.06
2023-01-08T07:35:39.308Z,99271.78
2023-01-08T07:38:07.301Z,99273.53
2023-01-08T07:40:37.886Z,99271.81
2023-01-08T07:43:07.086Z,99281.28
2023-01-08T07:45:35.496Z,99273.50
2023-01-08T07:48:03.575Z,99272.66
2023-01-08T07:50:31.735Z,99267.47
2023-01-08T07:53:00.904Z,99262.31
2023-01-08T07:55:30.394Z,99263.16
2023-01-08T07:57:58.783Z,99262.28
2023-01-08T08:00:27.339Z,99266.59
2023-01-08T08:02:55.856Z,99266.63
2023-01-08T08:05:23.965Z,99265.78
2023-01-08T08:07:51.875Z,99258.78
2023-01-08T08:10:20.201Z,99257.91
2023-01-08T08:12:48.177Z,99259.69
2023-01-08T08:15:16.244Z,99257.06
2023-01-08T08:17:46.631Z,99246.75
2023-01-08T08:20:14.689Z,99241.59
2023-01-08T08:22:42.734Z,99238.13
2023-01-08T08:25:11.874Z,99240.72
2023-01-08T08:27:39.816Z,99239.87
2023-01-08T08:30:08.594Z,99231.25
2023-01-08T08:32:36.925Z,99226.03
2023-01-08T08:35:06.228Z,99227.78
2023-01-08T08:37:34.298Z,99222.59
2023-01-08T08:40:02.623Z,99235.53
2023-01-08T08:42:30.763Z,99226.06
2023-01-08T08:44:58.797Z,99228.63
2023-01-08T08:47:27.135Z,99220.84
2023-01-08T08:49:55.154Z,99221.72
2023-01-08T08:52:23.170Z,99216.56
2023-01-08T08:54:51.516Z,99210.50
2023-01-08T08:57:19.564Z,99220.00
2023-01-08T08:59:47.762Z,99214.84
2023-01-08T09:02:16.353Z,99222.59
2023-01-08T09:04:44.649Z,99220.88
2023-01-08T09:07:12.752Z,99217.41
2023-01-08T09:09:41.170Z,99211.38
2023-01-08T09:12:09.976Z,99212.22
2023-01-08T09:14:37.895Z,99200.97
2023-01-08T09:17:06.355Z,99208.78
2023-01-08T09:19:34.453Z,99213.97
2023-01-08T09:22:03.301Z,99210.44
2023-01-08T09:24:34.461Z,99213.84
2023-01-08T09:27:02.560Z,99208.72
2023-01-08T09:29:30.883Z,99205.22
2023-01-08T09:32:00.851Z,99199.13
2023-01-08T09:34:30.082Z,99196.50
2023-01-08T09:36:58.292Z,99188.69
2023-01-08T09:39:26.688Z,99177.94
2023-01-08T09:41:56.082Z,99177.03
2023-01-08T09:44:28.009Z,99174.94
2023-01-08T09:46:56.635Z,99170.56
2023-01-08T09:49:30.230Z,99159.59
2023-01-08T09:51:59.634Z,99154.19
2023-01-08T09:54:27.723Z,99149.94
2023-01-08T09:56:55.770Z,99148.28
2023-01-08T09:59:24.227Z,99153.16
2023-01-08T10:01:52.858Z,99149.72
2023-01-08T10:04:29.473Z,99137.03
2023-01-08T10:07:22.284Z,99130.16
2023-01-08T10:09:51.679Z,99133.47
2023-01-08T10:12:30.421Z,99116.41
2023-01-08T10:15:11.957Z,99128.78
2023-01-08T10:17:42.285Z,99113.06
2023-01-08T10:20:12.995Z,99112.88
2023-01-08T10:22:41.238Z,99108.16
2023-01-08T10:25:13.090Z,99108.56
2023-01-08T10:27:54.963Z,99104.44
2023-01-08T10:30:29.762Z,99105.03
2023-01-08T10:33:03.573Z,99103.25
2023-01-08T10:35:36.532Z,99097.25
2023-01-08T10:38:04.889Z,99093.41
2023-01-08T10:40:39.250Z,99094.78
2023-01-08T10:43:15.887Z,99080.38
2023-01-08T10:45:46.695Z,99074.09
2023-01-08T10:48:18.716Z,99066.50
2023-01-08T10:50:48.446Z,99065.94
2023-01-08T10:53:29.153Z,99063.75
2023-01-08T10:56:02.031Z,99057.25
2023-01-08T10:58:40.314Z,99056.66
2023-01-08T11:01:15.305Z,99062.22
2023-01-08T11:03:43.789Z,99052.12
2023-01-08T11:06:21.283Z,99054.38
2023-01-08T11:08:54.827Z,99046.31
2023-01-08T11:11:23.448Z,99046.44
2023-01-08T11:13:57.470Z,99039.47
2023-01-08T11:16:37.913Z,99031.75
2023-01-08T11:19:26.458Z,99022.50
2023-01-08T11:22:00.372Z,99019.50
2023-01-08T11:24:34.039Z,99014.62
2023-01-08T11:27:17.131Z,99020.34
2023-01-08T11:30:11.174Z,99017.28
2023-01-08T11:32:53.002Z,99006.81
2023-01-08T11:35:26.180Z,99001.94
2023-01-08T11:37:59.733Z,98987.78
2023-01-08T11:40:38.065Z,98988.69
2023-01-08T11:43:30.866Z,98987.81
2023-01-08T11:46:33.664Z,98981.47
2023-01-08T11:49:27.937Z,98973.31
2023-01-08T11:52:18.324Z,98973.13
2023-01-08T11:54:53.651Z,98970.75
2023-01-08T11:57:35.913Z,98964.22
2023-01-08T12:00:27.065Z,98960.34
2023-01-08T12:03:05.162Z,98968.25
2023-01-08T12:06:20.753Z,98966.50
2023-01-08T12:09:22.791Z,98957.09
2023-01-08T12:12:00.841Z,98950.59
2023-01-08T12:14:44.407Z,98951.91
2023-01-08T12:17:37.325Z,98949.28
2023-01-08T12:20:30.796Z,98945.94
2023-01-08T12:23:32.852Z,98947.91
2023-01-08T12:26:07.626Z,98952.97
2023-01-08T12:28:55.036Z,98942.13
2023-01-08T12:31:46.388Z,98949.19
2023-01-08T12:34:21.074Z,98956.34
2023-01-08T12:36:53.385Z,98950.84
2023-01-08T12:39:28.839Z,98953.06
2023-01-08T12:42:11.724Z,98947.56
2023-01-08T12:44:40.893Z,98945.91
2023-01-08T12:47:15.694Z,98942.47
2023-01-08T12:49:51.815Z,98934.72
2023-01-08T12:52:21.323Z,98937.44
2023-01-08T12:55:05.352Z,98938.53
2023-01-08T12:57:47.756Z,98938.97
2023-01-08T13:00:25.662Z,98938.31
2023-01-08T13:03:00.353Z,98936.47
2023-01-08T13:05:28.362Z,98938.31
2023-01-08T13:08:07.725Z,98929.59
2023-01-08T13:10:50.178Z,98939.56
2023-01-08T13:13:30.492Z,98933.34
2023-01-08T13:16:08.869Z,98935.63
2023-01-08T13:18:38.105Z,98927.88
2023-01-08T13:21:06.653Z,98924.78
2023-01-08T13:23:35.381Z,98925.69
2023-01-08T13:26:05.669Z,98921.78
2023-01-08T13:29:18.274Z,98923.03
2023-01-08T13:31:46.905Z,98918.81
2023-01-08T13:34:44.333Z,98914.75
2023-01-08T13:37:27.068Z,98916.94
2023-01-08T13:39:55.616Z,98911.94
2023-01-08T13:42:28.790Z,98910.34
2023-01-08T13:45:01.442Z,98909.16
2023-01-08T13:47:32.708Z,98909.72
2023-01-08T13:50:04.462Z,98902.69
2023-01-08T13:52:49.214Z,98905.09
2023-01-08T13:55:38.309Z,98909.13
2023-01-08T13:58:17.140Z,98909.13
2023-01-08T14:00:48.252Z,98916.50
2023-01-08T14:03:27.133Z,98902.41
2023-01-08T14:06:16.144Z,98896.13
2023-01-08T14:08:52.942Z,98905.22
2023-01-08T14:11:21.193Z,98902.00
2023-01-08T14:13:50.144Z,98904.78
2023-01-08T14:16:18.198Z,98905.97
2023-01-08T14:18:47.219Z,98902.94
2023-01-08T14:21:16.253Z,98900.69
2023-01-08T14:23:49.063Z,98904.06
2023-01-08T14:26:39.057Z,98902.22
2023-01-08T14:29:19.354Z,98898.94
2023-01-08T14:31:54.199Z,98904.91
2023-01-08T14:34:24.195Z,98906.91
2023-01-08T14:36:54.292Z,98909.81
2023-01-08T14:39:33.432Z,98896.25
2023-01-08T14:42:27.795Z,98900.94
2023-01-08T14:45:01.684Z,98889.63
2023-01-08T14:47:36.163Z,98891.66
2023-01-08T14:50:04.887Z,98887.75
2023-01-08T14:52:34.222Z,98888.28
2023-01-08T14:55:03.524Z,98884.00
2023-01-08T14:57:31.884Z,98887.59
2023-01-08T15:00:03.644Z,98885.16
2023-01-08T15:02:34.701Z,98888.69
2023-01-08T15:05:13.125Z,98885.00
2023-01-08T15:07:44.428Z,98881.03
2023-01-08T15:10:42.236Z,98882.22
2023-01-08T15:13:22.843Z,98883.16
2023-01-08T15:16:00.141Z,98884.31
2023-01-08T15:18:28.167Z,98881.09
2023-01-08T15:20:56.769Z,98882.53
2023-01-08T15:23:28.311Z,98876.16
2023-01-08T15:25:57.023Z,98882.06
2023-01-08T15:28:26.890Z,98870.94
2023-01-08T15:30:56.442Z,98870.41
2023-01-08T15:33:26.633Z,98878.25
2023-01-08T15:35:55.109Z,98867.28
2023-01-08T15:38:24.154Z,98873.03
2023-01-08T15:40:53.702Z,98862.94
2023-01-08T15:43:22.247Z,98864.63
2023-01-08T15:45:51.805Z,98867.81
2023-01-08T15:48:20.269Z,98852.53
2023-01-08T15:50:48.235Z,98856.94
2023-01-08T15:53:22.651Z,98851.72
2023-01-08T15:55:51.654Z,98853.00
2023-01-08T15:58:19.742Z,98851.09
2023-01-08T16:00:47.991Z,98857.22
2023-01-08T16:03:17.422Z,98847.66
2023-01-08T16:05:45.503Z,98848.44
2023-01-08T16:08:13.430Z,98846.22
2023-01-08T16:10:41.893Z,98847.03
2023-01-08T16:13:15.709Z,98847.09
2023-01-08T16:15:46.292Z,98849.03
2023-01-08T16:18:14.340Z,98851.69
2023-01-08T16:20:42.269Z,98849.53
2023-01-08T16:23:10.584Z,98853.00
2023-01-08T16:25:41.586Z,98848.03
2023-01-08T16:28:09.986Z,98844.06
2023-01-08T16:30:39.530Z,98847.31
2023-01-08T16:33:07.479Z,98837.06
2023-01-08T16:35:35.585Z,98840.19
2023-01-08T16:38:03.942Z,98827.53
2023-01-08T16:40:31.862Z,98833.94
2023-01-08T16:43:02.342Z,98829.63
2023-01-08T16:45:30.788Z,98828.13
2023-01-08T16:47:58.812Z,98825.81
2023-01-08T16:50:26.790Z,98830.44
2023-01-08T16:52:55.153Z,98830.56
2023-01-08T16:55:23.041Z,98830.19
2023-01-08T16:57:51.054Z,98822.75
2023-01-08T17:00:19.671Z,98829.31
2023-01-08T17:02:47.731Z,98831.78
2023-01-08T17:05:17.030Z,98824.84
2023-01-08T17:07:45.435Z,98822.78
2023-01-08T17:10:13.464Z,98822.13
2023-01-08T17:12:41.440Z,98822.88
2023-01-08T17:15:10.375Z,98827.09
2023-01-08T17:17:38.366Z,98822.94
2023-01-08T17:20:06.934Z,98824.88
2023-01-08T17:22:35.657Z,98821.50
2023-01-08T17:25:04.038Z,98822.53
2023-01-08T17:27:35.170Z,98827.94
2023-01-08T17:30:04.058Z,98815.38
2023-01-08T17:32:32.632Z,98813.75
2023-01-08T17:35:01.698Z,98819.75
2023-01-08T17:37:30.671Z,98815.59
2023-01-08T17:40:00.370Z,98815.91
2023-01-08T17:42:36.330Z,98807.59
2023-01-08T17:45:06.473Z,98808.00
2023-01-08T17:47:35.581Z,98808.94
2023-01-08T17:50:06.037Z,98801.50
2023-01-08T17:52:34.475Z,98806.53
2023-01-08T17:55:02.560Z,98804.75
2023-01-08T17:57:33.314Z,98800.41
2023-01-08T18:00:01.859Z,98809.47
2023-01-08T18:02:32.668Z,98804.41
2023-01-08T18:05:01.014Z,98803.22
2023-01-08T18:07:29.202Z,98810.16
2023-01-08T18:09:57.950Z,98799.50
2023-01-08T18:12:26.422Z,98802.78
2023-01-08T18:14:54.412Z,98805.06
2023-01-08T18:17:22.706Z,98803.72
2023-01-08T18:19:51.054Z,98807.84
2023-01-08T18:22:19.067Z,98806.19
2023-01-08T18:24:47.034Z,98798.38
2023-01-08T18:27:15.441Z,98800.34
2023-01-08T18:29:43.432Z,98805.50
2023-01-08T18:32:11.468Z,98814.00
2023-01-08T18:34:40.655Z,98809.38
2023-01-08T18:37:08.876Z,98808.84
2023-01-08T18:39:37.100Z,98806.78
2023-01-08T18:42:24.321Z,98806.09
2023-01-08T18:44:55.502Z,98810.00
2023-01-08T18:47:25.720Z,98805.84
2023-01-08T18:49:59.270Z,98806.19
2023-01-08T18:52:27.661Z,98809.16
2023-01-08T18:54:55.798Z,98811.19
2023-01-08T18:57:23.807Z,98812.09
2023-01-08T18:59:52.157Z,98810.03
2023-01-08T19:02:27.218Z,98807.41
2023-01-08T19:04:55.771Z,98809.97
2023-01-08T19:07:23.733Z,98814.38
2023-01-08T19:09:51.964Z,98811.59
2023-01-08T19:12:20.392Z,98803.03
2023-01-08T19:14:48.461Z,98808.47
2023-01-08T19:17:16.593Z,98808.88
2023-01-08T19:19:45.094Z,98816.28
2023-01-08T19:22:13.042Z,98815.03
2023-01-08T19:24:41.142Z,98814.09
2023-01-08T19:27:09.533Z,98806.34
2023-01-08T19:29:37.728Z,98812.69
2023-01-08T19:32:07.144Z,98805.34
2023-01-08T19:34:35.664Z,98803.28
2023-01-08T19:37:03.796Z,98795.63
2023-01-08T19:39:31.941Z,98793.03
2023-01-08T19:42:19.426Z,98792.28
2023-01-08T19:44:47.595Z,98794.97
2023-01-08T19:47:16.096Z,98790.22
2023-01-08T19:49:47.816Z,98794.41
2023-01-08T19:52:17.086Z,98790.50
2023-01-08T19:54:45.661Z,98788.31
2023-01-08T19:57:13.851Z,98782.81
2023-01-08T19:59:42.421Z,98787.84
2023-01-08T20:02:10.713Z,98787.75
2023-01-08T20:04:44.924Z,98786.53
2023-01-08T20:07:13.670Z,98779.34
2023-01-08T20:09:42.975Z,98781.41
2023-01-08T20:12:11.622Z,98774.75
2023-01-08T20:14:39.699Z,98775.09
2023-01-08T20:17:08.483Z,98771.84
2023-01-08T20:19:37.138Z,98774.13
2023-01-08T20:22:05.220Z,98769.62
2023-01-08T20:24:33.629Z,98769.75
2023-01-08T20:27:01.551Z,98769.50
2023-01-08T20:29:29.698Z,98773.34
2023-01-08T20:31:59.660Z,98774.00
2023-01-08T20:34:28.026Z,98775.38
2023-01-08T20:36:56.656Z,98771.41
2023-01-08T20:39:25.600Z,98769.00
2023-01-08T20:41:55.802Z,98771.94
2023-01-08T20:44:33.206Z,98761.41
2023-01-08T20:47:02.139Z,98756.63
2023-01-08T20:49:30.199Z,98764.66
2023-01-08T20:52:00.331Z,98762.16
2023-01-08T20:54:30.184Z,98768.47
2023-01-08T20:56:59.429Z,98761.59
2023-01-08T20:59:28.220Z,98749.59
2023-01-08T21:01:57.351Z,98756.03
2023-01-08T21:04:25.811Z,98755.19
2023-01-08T21:06:53.891Z,98743.13
2023-01-08T21:09:21.829Z,98741.97
2023-01-08T21:11:50.972Z,98748.12
2023-01-08T21:14:18.899Z,98744.06
2023-01-08T21:16:46.971Z,98736.97
2023-01-08T21:19:15.611Z,98736.81
2023-01-08T21:21:43.982Z,98729.97
2023-01-08T21:24:13.038Z,98735.66
2023-01-08T21:26:41.453Z,98730.31
2023-01-08T21:29:10.501Z,98727.87
2023-01-08T21:31:39.211Z,98727.19
2023-01-08T21:34:09.063Z,98728.09
2023-01-08T21:36:39.353Z,98726.91
2023-01-08T21:39:07.782Z,98722.00
2023-01-08T21:41:54.474Z,98725.03
2023-01-08T21:44:43.289Z,98722.06
2023-01-08T21:47:17.645Z,98721.28
2023-01-08T21:49:46.355Z,98712.72
2023-01-08T21:52:33.349Z,98710.06
2023-01-08T21:55:02.626Z,98726.56
2023-01-08T21:57:30.670Z,98713.72
2023-01-08T21:59:58.727Z,98723.00
2023-01-08T22:02:27.046Z,98712.00
2023-01-08T22:04:56.439Z,98725.03
2023-01-08T22:07:25.515Z,98710.53
2023-01-08T22:09:53.613Z,98711.22
2023-01-08T22:12:23.103Z,98706.25
2023-01-08T22:14:55.884Z,98702.88
2023-01-08T22:17:25.630Z,98705.19
2023-01-08T22:19:54.388Z,98699.88
2023-01-08T22:22:22.367Z,98698.66
2023-01-08T22:24:52.489Z,98690.06
2023-01-08T22:27:21.885Z,98691.94
2023-01-08T22:29:50.420Z,98694.19
2023-01-08T22:32:18.520Z,98695.44
2023-01-08T22:34:46.897Z,98688.88
2023-01-08T22:37:17.076Z,98685.91
2023-01-08T22:39:46.344Z,98686.12
2023-01-08T22:42:14.537Z,98671.31
2023-01-08T22:44:42.960Z,98675.34
2023-01-08T22:47:11.039Z,98671.62
2023-01-08T22:49:39.150Z,98666.84
2023-01-08T22:52:08.598Z,98663.91
2023-01-08T22:54:37.753Z,98657.56
2023-01-08T22:57:06.085Z,98650.06
2023-01-08T22:59:34.595Z,98646.75
2023-01-08T23:02:02.609Z,98643.09
2023-01-08T23:04:30.588Z,98645.28
2023-01-08T23:06:58.789Z,98635.94
2023-01-08T23:09:26.900Z,98624.84
2023-01-08T23:11:54.900Z,98633.19
2023-01-08T23:14:23.249Z,98625.25
2023-01-08T23:16:51.287Z,98625.78
2023-01-08T23:19:19.308Z,98621.87
2023-01-08T23:21:47.770Z,98615.78
2023-01-08T23:24:15.801Z,98616.09
2023-01-08T23:26:44.051Z,98614.37
2023-01-08T23:29:12.391Z,98620.38
2023-01-08T23:31:41.363Z,98617.00
2023-01-08T23:34:09.386Z,98609.06
2023-01-08T23:36:37.910Z,98607.72
2023-01-08T23:39:05.889Z,98607.19
2023-01-08T23:41:35.068Z,98606.72
2023-01-08T23:44:09.232Z,98607.91
2023-01-08T23:46:37.837Z,98605.31
2023-01-08T23:49:07.488Z,98600.09
2023-01-08T23:51:35.839Z,98593.16
2023-01-08T23:54:03.930Z,98595.53
2023-01-08T23:56:32.320Z,98594.00
2023-01-08T23:59:00.415Z,98588.00
